Time;durP1;ratioP1;P1;durP2;ratioP2;P2;SDS_P1;SDS_P2;PMS_P1;PMS_P2;Temp;Humidity;BMP_temperature;BMP_pressure;BME280_temperature;BME280_humidity;BME280_pressure;Samples;Min_cycle;Max_cycle;Signal;HPM_P1;HPM_P2
2022/10/13 00:01:47;;;;;;;41.37;18.70;;;;;;;7.30;96.89;101612.20;5151565;56;1136949;-72
2022/10/13 00:06:53;;;;;;;46.73;17.03;;;;;;;7.25;96.18;101610.69;5123651;57;1137059;-72
2022/10/13 00:12:01;;;;;;;41.37;16.97;;;;;;;7.20;96.23;101598.20;5139643;56;1139040;-72
2022/10/13 00:17:07;;;;;;;40.27;15.67;;;;;;;7.19;96.33;101598.66;5106286;57;1139154;-72
2022/10/13 00:22:13;;;;;;;47.47;17.50;;;;;;;7.22;96.44;101593.27;5054068;58;1137066;-72
2022/10/13 00:27:22;;;;;;;40.00;17.03;;;;;;;7.20;96.53;101579.78;5017483;58;1141144;-74
2022/10/13 00:32:28;;;;;;;38.53;15.73;;;;;;;7.12;96.73;101580.16;5044357;58;1141065;-72
2022/10/13 00:37:34;;;;;;;40.83;16.45;;;;;;;7.06;97.08;101591.80;5044500;58;1139034;-72
2022/10/13 00:42:42;;;;;;;36.93;16.27;;;;;;;7.06;97.08;101591.80;5061637;57;1141111;-72
2022/10/13 00:47:52;;;;;;;46.00;17.40;;;;;;;7.10;97.15;101591.20;5160980;56;1141153;-72
2022/10/13 00:53:00;;;;;;;53.40;19.10;;;;;;;7.09;97.45;101590.81;5151205;57;1141675;-72
2022/10/13 00:58:10;;;;;;;38.70;16.07;;;;;;;7.10;97.59;101583.78;5163636;57;1141329;-72
2022/10/13 01:03:16;;;;;;;37.80;16.07;;;;;;;7.06;97.35;101578.66;5151362;57;1141081;-72
2022/10/13 01:08:25;;;;;;;41.77;17.77;;;;;;;7.08;97.24;101579.90;5163668;56;1141364;-72
2022/10/13 01:14:03;;;;;;;44.30;18.27;;;;;;;7.06;97.26;101568.59;5151235;57;1141227;-72
2022/10/13 01:19:55;;;;;;;42.73;17.40;;;;;;;7.05;97.32;101572.14;5079665;57;1141010;-72
2022/10/13 01:25:27;;;;;;;40.90;14.50;;;;;;;6.99;97.31;101569.35;5056811;58;1139520;-72
2022/10/13 01:30:37;;;;;;;35.43;16.23;;;;;;;7.00;97.33;101566.27;4987065;58;1141283;-73
2022/10/13 01:36:03;;;;;;;36.80;15.17;;;;;;;7.01;97.12;101556.98;5056452;58;1141294;-72
2022/10/13 01:41:14;;;;;;;44.73;17.60;;;;;;;7.03;97.22;101554.26;5056205;58;1139108;-72
2022/10/13 01:46:36;;;;;;;37.93;17.50;;;;;;;7.03;97.48;101556.89;5065251;57;1139238;-72
2022/10/13 01:51:43;;;;;;;40.00;15.70;;;;;;;7.00;96.98;101553.11;5001167;58;1137018;-72
2022/10/13 01:56:56;;;;;;;35.70;15.43;;;;;;;6.91;96.97;101532.48;4986585;58;1137111;-71
2022/10/13 02:02:10;;;;;;;;;;;;;;;6.86;96.83;101531.86;4990066;58;1139370;-73
2022/10/13 02:07:25;;;;;;;44.20;17.03;;;;;;;6.83;96.86;101529.36;5153663;56;972148;-72
2022/10/13 02:12:55;;;;;;;35.80;16.20;;;;;;;6.81;97.22;101524.63;5154108;56;1135012;-72
2022/10/13 02:18:03;;;;;;;35.83;15.23;;;;;;;6.76;97.33;101516.95;5108898;56;1139145;-72
2022/10/13 02:23:14;;;;;;;39.83;15.53;;;;;;;6.65;97.28;101508.25;5206809;56;1139319;-72
2022/10/13 02:28:20;;;;;;;35.10;15.07;;;;;;;6.72;97.19;101506.66;5206706;56;1141681;-72
2022/10/13 02:33:26;;;;;;;35.90;16.37;;;;;;;6.73;97.38;101504.39;5207092;56;1141569;-72
2022/10/13 02:38:32;;;;;;;34.07;15.80;;;;;;;6.68;97.43;101500.22;5171171;56;1141492;-72
2022/10/13 02:43:38;;;;;;;51.13;14.33;;;;;;;6.61;97.64;101500.56;5208456;56;1139209;-72
2022/10/13 02:48:44;;;;;;;35.67;15.50;;;;;;;6.60;97.62;101499.70;5216820;56;1141157;-72
2022/10/13 02:53:50;;;;;;;40.77;16.40;;;;;;;6.61;97.87;101496.16;5216978;56;1141295;-72
2022/10/13 02:58:55;;;;;;;36.80;16.57;;;;;;;6.58;98.50;101500.69;5216994;56;1141518;-72
2022/10/13 03:04:01;;;;;;;35.33;15.75;;;;;;;6.53;98.49;101498.30;5220448;56;1139273;-72
2022/10/13 03:09:07;;;;;;;34.37;14.80;;;;;;;6.56;98.43;101503.42;5228954;56;1141561;-72
2022/10/13 03:14:13;;;;;;;34.80;16.00;;;;;;;6.60;98.13;101487.87;5202563;56;1141091;-72
2022/10/13 03:19:21;;;;;;;40.90;18.30;;;;;;;6.57;97.85;101484.06;5223058;55;1141033;-72
2022/10/13 03:24:27;;;;;;;40.37;17.17;;;;;;;6.57;97.77;101493.27;5200213;56;1139307;-72
2022/10/13 03:29:33;;;;;;;47.60;17.73;;;;;;;6.50;97.39;101494.48;5231372;55;1139044;-72
2022/10/13 03:34:40;;;;;;;59.18;17.00;;;;;;;6.42;97.50;101492.64;5306959;55;1139346;-72
2022/10/13 03:39:46;;;;;;;39.63;16.37;;;;;;;6.37;97.17;101490.70;5307015;55;1140997;-72
2022/10/13 03:44:52;;;;;;;42.60;18.43;;;;;;;6.31;96.97;101482.62;5307010;55;1141042;-72
2022/10/13 03:49:58;;;;;;;54.40;19.60;;;;;;;6.30;97.41;101485.31;5306990;55;1141303;-72
2022/10/13 03:55:04;;;;;;;49.03;19.83;;;;;;;6.30;97.51;101478.75;5307045;55;1139045;-72
2022/10/13 04:00:12;;;;;;;44.13;19.00;;;;;;;6.21;97.20;101477.86;5200721;56;1138997;-72
2022/10/13 04:05:20;;;;;;;40.90;18.73;;;;;;;6.14;97.22;101481.20;5192367;56;1141085;-72
2022/10/13 04:10:26;;;;;;;42.63;18.60;;;;;;;6.19;97.55;101484.95;5251772;55;1141214;-72
2022/10/13 04:15:40;;;;;;;45.90;20.57;;;;;;;6.17;97.64;101490.27;5245515;55;1141144;-72
2022/10/13 04:20:46;;;;;;;44.73;19.57;;;;;;;6.12;97.64;101486.97;5298576;55;1139280;-72
2022/10/13 04:25:51;;;;;;;54.77;20.77;;;;;;;6.09;97.75;101486.28;5171894;56;1139286;-72
2022/10/13 04:30:59;;;;;;;56.20;21.53;;;;;;;6.03;97.53;101479.97;5193536;56;1139087;-72
2022/10/13 04:36:08;;;;;;;57.40;20.80;;;;;;;5.99;97.06;101470.91;5218435;56;1141079;-72
2022/10/13 04:41:16;;;;;;;71.00;28.67;;;;;;;5.99;97.06;101470.91;5216389;56;1141411;-72
2022/10/13 04:46:25;;;;;;;86.30;38.33;;;;;;;5.94;97.18;101471.59;5181783;56;1139469;-72
2022/10/13 04:51:32;;;;;;;78.17;32.83;;;;;;;5.81;97.03;101476.91;5157395;56;1139308;-72
2022/10/13 04:56:38;;;;;;;101.37;37.57;;;;;;;5.65;97.07;101464.06;5221616;56;1139082;-72
2022/10/13 05:01:43;;;;;;;96.50;38.67;;;;;;;5.62;97.44;101466.36;5208363;56;1141426;-72
2022/10/13 05:06:51;;;;;;;80.20;36.47;;;;;;;5.61;98.05;101458.09;5219467;56;1138976;-71
2022/10/13 05:11:57;;;;;;;64.53;27.87;;;;;;;5.61;98.20;101455.92;5239828;56;1136984;-71
2022/10/13 05:17:02;;;;;;;54.23;21.77;;;;;;;5.54;98.29;101457.94;5189121;56;1136943;-71
2022/10/13 05:22:08;;;;;;;63.47;23.57;;;;;;;5.60;98.38;101459.45;5197144;56;1138957;-71
2022/10/13 05:27:17;;;;;;;58.53;22.90;;;;;;;5.66;98.45;101461.34;5219799;56;1139063;-72
2022/10/13 05:32:22;;;;;;;72.17;32.37;;;;;;;5.67;98.37;101456.95;5219880;55;1139032;-71
2022/10/13 05:37:28;;;;;;;70.32;35.08;;;;;;;5.63;98.50;101447.53;5192440;56;1137000;-71
2022/10/13 05:42:37;;;;;;;53.83;23.73;;;;;;;5.57;98.75;101445.15;5220196;55;1136944;-72
2022/10/13 05:47:42;;;;;;;53.87;19.70;;;;;;;5.56;99.00;101439.50;5213805;56;1139289;-72
2022/10/13 05:52:49;;;;;;;44.87;19.97;;;;;;;5.64;99.60;101433.49;5216657;56;1139258;-71
2022/10/13 05:57:55;;;;;;;46.73;20.80;;;;;;;5.68;100.00;101429.80;5238484;55;1138987;-73
2022/10/13 06:03:11;;;;;;;50.57;23.27;;;;;;;5.76;100.00;101425.09;5240982;55;1139255;-72
2022/10/13 06:08:19;;;;;;;40.37;17.83;;;;;;;5.90;100.00;101433.70;5240645;56;1141032;-71
2022/10/13 06:13:24;;;;;;;47.60;19.30;;;;;;;6.10;100.00;101432.84;5240583;55;1139069;-72
2022/10/13 06:18:30;;;;;;;54.43;21.87;;;;;;;6.33;100.00;101419.50;5260957;56;21872;-72
2022/10/13 06:23:36;;;;;;;47.40;23.27;;;;;;;6.58;100.00;101425.78;5241308;55;1136920;-72
2022/10/13 06:28:42;;;;;;;50.13;19.63;;;;;;;7.09;100.00;101426.87;5241124;55;1143089;-72
2022/10/13 06:33:47;;;;;;;36.60;19.67;;;;;;;7.09;100.00;101426.87;5241052;55;1143944;-72
2022/10/13 06:38:54;;;;;;;44.70;19.25;;;;;;;7.36;100.00;101425.51;5240840;55;1143288;-72
2022/10/13 06:44:00;;;;;;;43.63;18.13;;;;;;;7.60;100.00;101414.23;5240706;55;1143096;-71
2022/10/13 08:58:44;;;;;;;22.47;9.73;;;;;;;13.33;81.36;101326.53;5273035;54;46091;-73
2022/10/13 09:04:26;;;;;;;22.93;9.83;;;;;;;13.35;77.00;101317.48;5150500;57;1134882;-74
2022/10/13 09:09:33;;;;;;;23.33;8.47;;;;;;;13.44;78.95;101317.28;5096656;57;1141259;-74
2022/10/13 09:14:40;;;;;;;22.70;8.23;;;;;;;13.58;79.83;101314.41;5065999;57;1141141;-75
2022/10/13 09:20:02;;;;;;;24.07;7.70;;;;;;;13.65;76.16;101309.44;4985189;57;1141082;-75
2022/10/13 09:25:18;;;;;;;21.57;7.73;;;;;;;13.70;75.00;101305.47;4991241;58;1141095;-76
2022/10/13 09:30:34;;;;;;;16.30;8.10;;;;;;;13.78;73.33;101308.84;5066467;58;1141458;-66
2022/10/13 09:35:51;;;;;;;12.97;5.87;;;;;;;13.91;73.89;101301.59;5148356;56;1141585;-66
2022/10/13 09:41:15;;;;;;;16.47;7.67;;;;;;;14.02;75.05;101299.42;5149545;56;1141159;-64
2022/10/13 09:46:28;;;;;;;16.60;8.47;;;;;;;14.18;75.14;101291.07;5102405;57;1141118;-65
2022/10/13 09:51:45;;;;;;;16.30;8.70;;;;;;;14.30;71.52;101292.25;5066535;58;1141073;-67
2022/10/13 09:57:04;;;;;;;24.03;8.60;;;;;;;14.35;70.51;101294.55;5113746;56;1141230;-64
2022/10/13 10:02:29;;;;;;;22.17;9.30;;;;;;;14.33;71.76;101297.33;5095223;56;1141269;-63
2022/10/13 10:07:35;;;;;;;18.67;7.87;;;;;;;14.46;71.43;101291.88;5056427;57;1141033;-69
2022/10/13 10:12:43;;;;;;;19.07;8.67;;;;;;;14.57;72.48;101284.34;5041981;57;1139010;-64
2022/10/13 10:18:00;;;;;;;26.37;8.97;;;;;;;14.66;72.39;101252.50;5088911;57;1139063;-68
2022/10/13 10:23:27;;;;;;;18.77;9.33;;;;;;;14.80;72.31;101254.01;5122056;57;1139133;-68
2022/10/13 10:28:55;;;;;;;15.60;8.50;;;;;;;14.83;70.15;101251.55;5084246;57;1139043;-68
2022/10/13 10:34:17;;;;;;;22.33;8.93;;;;;;;14.95;71.61;101261.20;4994182;58;1139249;-75
2022/10/13 10:39:33;;;;;;;20.87;9.10;;;;;;;15.01;70.71;101248.19;5024979;58;1159254;-75
2022/10/13 10:44:42;;;;;;;17.27;9.33;;;;;;;15.02;69.88;101237.05;5070435;57;1142841;-75
2022/10/13 10:49:50;;;;;;;12.67;7.60;;;;;;;15.02;70.38;101239.22;5072319;57;1141122;-74
2022/10/13 10:55:36;;;;;;;15.00;8.47;;;;;;;15.11;70.45;101219.81;5069322;57;1141446;-75
2022/10/13 11:00:55;;;;;;;18.90;9.80;;;;;;;15.25;69.71;101212.45;5077476;57;1141231;-75
2022/10/13 11:06:04;;;;;;;20.27;9.60;;;;;;;15.33;69.68;101219.28;5021855;57;1141075;-74
2022/10/13 11:11:30;;;;;;;21.17;8.98;;;;;;;15.41;70.13;101209.66;5063383;57;1141086;-70
2022/10/13 11:16:43;;;;;;;24.43;9.23;;;;;;;15.56;71.26;101210.17;5082272;57;1141183;-71
2022/10/13 11:22:04;;;;;;;16.80;6.63;;;;;;;15.66;68.28;101199.54;5114171;57;1141255;-71
2022/10/13 11:27:37;;;;;;;22.83;8.60;;;;;;;15.80;68.66;101192.00;5094687;57;1141095;-71
2022/10/13 11:32:54;;;;;;;26.05;8.15;;;;;;;16.02;69.13;101189.61;5117155;57;1141088;-75
2022/10/13 11:38:06;;;;;;;16.93;8.40;;;;;;;16.27;67.78;101181.55;5048048;57;1141145;-74
2022/10/13 11:43:38;;;;;;;22.37;12.57;;;;;;;16.41;67.60;101170.94;5055351;57;1138901;-71
2022/10/13 11:49:02;;;;;;;24.37;8.03;;;;;;;16.50;66.97;101166.08;5093399;57;1141369;-74
2022/10/13 11:54:45;;;;;;;18.43;8.33;;;;;;;16.62;67.16;101156.95;5041300;57;1139065;-70
2022/10/13 11:59:54;;;;;;;61.43;31.17;;;;;;;16.82;68.69;101143.93;5007157;58;1141381;-69
2022/10/13 12:05:06;;;;;;;18.73;10.90;;;;;;;16.95;65.74;101148.14;4993562;58;1143405;-73
2022/10/13 12:10:24;;;;;;;17.95;8.70;;;;;;;16.84;66.77;101137.95;5082817;57;1143113;-71
2022/10/13 12:15:43;;;;;;;19.77;10.17;;;;;;;17.21;66.16;101121.95;5133435;56;1141071;-72
2022/10/13 12:20:58;;;;;;;20.37;10.40;;;;;;;17.21;66.16;101121.95;4972179;59;1143152;-74
2022/10/13 12:26:04;;;;;;;74.57;38.47;;;;;;;17.26;67.27;101124.19;4991628;58;1143267;-72
2022/10/13 12:31:17;;;;;;;30.33;12.50;;;;;;;17.38;64.89;101120.83;5071378;58;1143300;-74
2022/10/13 12:36:32;;;;;;;18.17;9.17;;;;;;;17.36;67.10;101118.30;5071892;58;1143236;-72
2022/10/13 12:41:46;;;;;;;18.17;8.33;;;;;;;17.53;65.46;101118.84;5071283;58;1141188;-71
2022/10/13 12:47:02;;;;;;;18.60;9.88;;;;;;;17.66;66.66;101105.63;5003074;58;1141196;-71
2022/10/13 12:52:19;;;;;;;30.57;9.50;;;;;;;17.65;64.29;101103.95;5123804;57;1141174;-71
2022/10/13 12:57:36;;;;;;;25.07;9.37;;;;;;;17.43;63.42;101103.32;4928041;59;1141086;-71
2022/10/13 13:02:42;;;;;;;19.63;11.03;;;;;;;17.31;63.80;101101.84;5185224;56;1140518;-69
2022/10/13 13:07:53;;;;;;;13.87;8.57;;;;;;;17.09;63.99;101103.58;5199826;56;1143144;-72
2022/10/13 13:13:12;;;;;;;20.37;11.00;;;;;;;16.86;65.72;101098.58;5213808;56;1141138;-72
2022/10/13 13:18:40;;;;;;;26.03;8.77;;;;;;;16.75;66.83;101093.42;5169127;56;1141132;-71
2022/10/13 13:23:49;;;;;;;16.33;8.97;;;;;;;16.63;67.22;101082.56;5201343;56;1139079;-73
2022/10/13 13:28:56;;;;;;;24.70;9.73;;;;;;;16.53;67.99;101072.34;5206467;56;1139065;-75
2022/10/13 13:34:02;;;;;;;25.53;8.60;;;;;;;16.50;67.98;101072.62;5231425;56;1139054;-69
2022/10/13 13:39:16;;;;;;;19.20;7.73;;;;;;;16.45;68.55;101069.07;5248457;56;1139264;-75
2022/10/13 13:44:22;;;;;;;14.83;7.33;;;;;;;16.41;68.69;101060.14;5249271;56;1139012;-72
2022/10/13 13:49:28;;;;;;;14.10;6.67;;;;;;;16.39;68.95;101058.11;5220003;56;1138973;-73
2022/10/13 13:54:34;;;;;;;24.53;7.60;;;;;;;16.38;69.50;101059.94;5224303;56;1139044;-74
2022/10/13 13:59:41;;;;;;;19.70;9.23;;;;;;;16.37;69.32;101060.92;5200778;56;1139051;-73
2022/10/13 14:04:48;;;;;;;21.03;6.43;;;;;;;16.37;69.78;101057.41;5056335;57;1139382;-72
2022/10/13 14:09:53;;;;;;;23.70;8.47;;;;;;;16.36;70.24;101051.72;5126084;57;1139240;-71
2022/10/13 14:14:59;;;;;;;17.73;8.53;;;;;;;16.35;69.91;101044.69;5191982;56;1137197;-70
2022/10/13 14:20:06;;;;;;;14.70;7.53;;;;;;;16.34;70.20;101045.21;5172243;56;1136233;-69
2022/10/13 14:25:14;;;;;;;16.40;7.60;;;;;;;16.32;70.18;101040.50;5165531;56;1141488;-72
2022/10/13 14:30:20;;;;;;;18.47;8.57;;;;;;;16.33;70.64;101039.52;5194667;56;1141074;-70
2022/10/13 14:35:26;;;;;;;19.63;7.13;;;;;;;16.34;70.20;101037.20;5187568;56;1140539;-77
2022/10/13 14:40:32;;;;;;;22.00;9.03;;;;;;;16.34;70.49;101037.20;5244664;56;1141072;-73
2022/10/13 14:45:38;;;;;;;28.87;10.07;;;;;;;16.34;70.66;101028.35;5115418;57;1141161;-74
2022/10/13 14:50:46;;;;;;;29.67;13.07;;;;;;;16.33;70.92;101030.17;5142832;56;1143127;-73
2022/10/13 14:55:53;;;;;;;27.57;10.50;;;;;;;16.34;71.33;101028.35;5169198;56;1143211;-73
2022/10/13 15:00:59;;;;;;;31.13;13.90;;;;;;;16.36;71.10;101023.69;5147621;56;1143218;-71
2022/10/13 15:06:05;;;;;;;23.93;11.10;;;;;;;16.87;70.94;101028.62;5129093;57;1143204;-70
2022/10/13 15:11:11;;;;;;;25.00;11.07;;;;;;;17.30;68.63;101030.64;5089559;57;1143229;-68
2022/10/13 15:16:21;;;;;;;32.83;15.73;;;;;;;17.05;68.95;101027.34;5109058;57;1143488;-67
2022/10/13 15:21:27;;;;;;;21.63;9.77;;;;;;;16.73;69.33;101022.42;4967203;59;1143095;-66
2022/10/13 15:26:33;;;;;;;36.57;19.03;;;;;;;16.41;69.72;101022.28;4984675;58;1141179;-65
2022/10/13 15:31:39;;;;;;;31.07;12.20;;;;;;;16.24;70.47;101022.17;5067084;57;1143209;-68
2022/10/13 15:36:46;;;;;;;23.43;9.60;;;;;;;16.08;71.07;101032.94;5066853;58;1143240;-74
2022/10/13 15:41:52;;;;;;;43.90;18.57;;;;;;;15.94;71.50;101013.36;5062862;58;1141052;-74
2022/10/13 15:46:58;;;;;;;45.30;22.57;;;;;;;15.78;71.86;101009.92;4985986;59;1143266;-74
2022/10/13 15:52:05;;;;;;;42.17;20.03;;;;;;;15.61;72.60;101006.62;5065637;57;1143551;-74
2022/10/13 15:57:10;;;;;;;69.03;32.60;;;;;;;15.47;73.26;101006.99;5065303;58;1143201;-75
2022/10/13 16:02:16;;;;;;;45.37;20.83;;;;;;;15.35;73.47;101012.95;5101235;56;1143673;-74
2022/10/13 16:07:22;;;;;;;56.87;25.80;;;;;;;15.25;73.97;101004.10;5143993;56;1143530;-74
2022/10/13 16:12:31;;;;;;;51.57;21.10;;;;;;;15.13;74.28;101007.34;5146224;57;1143231;-74
2022/10/13 16:17:36;;;;;;;39.77;17.73;;;;;;;15.02;74.72;101009.28;5108061;57;1143282;-74
2022/10/13 16:22:42;;;;;;;33.93;15.37;;;;;;;14.90;75.02;101009.88;5061651;57;1143234;-73
2022/10/13 16:27:49;;;;;;;41.13;16.57;;;;;;;14.82;75.30;101007.03;5060448;57;1143242;-73
2022/10/13 16:32:55;;;;;;;38.90;17.47;;;;;;;14.77;75.59;101007.95;5060966;57;1143226;-72
2022/10/13 16:38:02;;;;;;;45.57;17.87;;;;;;;14.67;75.79;101009.22;5070325;57;1143170;-76
2022/10/13 16:43:08;;;;;;;34.50;16.53;;;;;;;14.57;76.01;101010.16;5130256;56;1143248;-77
2022/10/13 16:48:15;;;;;;;33.37;15.83;;;;;;;14.47;76.49;101003.95;5168782;56;1143268;-67
2022/10/13 16:53:21;;;;;;;36.67;16.10;;;;;;;14.35;77.03;101001.34;5138706;56;1143252;-80
2022/10/13 16:58:27;;;;;;;40.63;19.43;;;;;;;14.25;77.34;100998.25;5166537;56;1143233;-72
2022/10/13 17:03:33;;;;;;;36.87;17.97;;;;;;;14.16;77.47;100995.90;5204362;56;1143511;-81
2022/10/13 17:08:41;;;;;;;39.97;19.43;;;;;;;13.99;77.89;100985.84;5204793;56;1143255;-64
2022/10/13 17:13:47;;;;;;;41.57;20.00;;;;;;;13.99;77.89;100985.84;5181129;56;1143204;-66
2022/10/13 17:18:53;;;;;;;62.10;24.93;;;;;;;13.88;78.59;100986.75;5127916;57;1143338;-66
2022/10/13 17:23:59;;;;;;;54.67;24.43;;;;;;;13.82;78.80;100991.73;5121852;57;1143256;-68
2022/10/13 17:29:05;;;;;;;42.23;18.00;;;;;;;13.76;79.09;100988.23;5188682;56;1143255;-67
2022/10/13 17:34:11;;;;;;;39.13;19.03;;;;;;;13.73;79.42;100976.92;5209474;56;1141057;-69
2022/10/13 17:39:16;;;;;;;39.60;16.77;;;;;;;13.69;79.68;100978.14;5206196;56;1141177;-68
2022/10/13 17:44:23;;;;;;;54.50;22.93;;;;;;;13.65;79.92;100968.72;5163728;56;1141196;-72
2022/10/13 17:49:28;;;;;;;39.03;18.43;;;;;;;13.57;80.21;100973.00;5135716;56;1141175;-73
2022/10/13 17:54:34;;;;;;;43.33;18.40;;;;;;;13.51;80.55;100979.66;5082934;56;1141075;-73
2022/10/13 17:59:40;;;;;;;34.97;16.50;;;;;;;13.45;80.92;100971.33;5079195;57;1141141;-74
2022/10/13 18:04:45;;;;;;;30.90;16.40;;;;;;;13.39;81.02;100979.34;5148467;56;1141366;-73
2022/10/13 18:09:53;;;;;;;37.90;20.53;;;;;;;13.34;81.13;100971.73;5061193;56;1141175;-75
2022/10/13 18:14:59;;;;;;;44.57;21.73;;;;;;;13.34;81.45;100965.09;5071901;56;1141184;-74
2022/10/13 18:20:05;;;;;;;42.43;23.87;;;;;;;13.29;81.46;100965.14;5086241;57;1141079;-74
2022/10/13 18:25:11;;;;;;;39.30;18.90;;;;;;;13.22;81.86;100971.42;5024077;57;1141114;-74
2022/10/13 18:30:17;;;;;;;47.60;25.47;;;;;;;13.14;81.96;100969.82;5179713;56;1140960;-75
2022/10/13 18:35:23;;;;;;;55.87;25.83;;;;;;;13.06;82.03;100969.61;5188236;56;1141254;-75
2022/10/13 18:40:29;;;;;;;63.97;36.20;;;;;;;12.98;82.21;100971.58;5187224;56;1141164;-75
2022/10/13 18:45:36;;;;;;;49.47;20.10;;;;;;;12.91;82.21;100961.07;5103774;56;1141117;-75
2022/10/13 18:50:42;;;;;;;41.80;25.43;;;;;;;12.90;82.25;100963.36;5123766;56;1141126;-75
2022/10/13 18:55:48;;;;;;;42.30;23.83;;;;;;;12.92;82.49;100963.24;5056679;57;1141264;-76
2022/10/13 19:01:01;;;;;;;45.97;23.83;;;;;;;12.92;82.33;100970.73;5093726;57;1141225;-75
2022/10/13 19:06:11;;;;;;;51.30;26.73;;;;;;;12.93;82.43;100976.88;5106816;57;1143315;-76
2022/10/13 19:11:21;;;;;;;64.63;32.77;;;;;;;12.86;82.41;100964.57;5133710;57;1143415;-75
2022/10/13 19:16:30;;;;;;;46.30;26.33;;;;;;;12.80;82.59;100965.56;5176399;56;1143185;-76
2022/10/13 19:21:39;;;;;;;48.40;22.27;;;;;;;12.72;82.70;100971.46;5127424;56;1143223;-76
2022/10/13 19:26:46;;;;;;;52.77;24.70;;;;;;;12.63;83.30;100965.57;5162740;56;1143233;-77
2022/10/13 19:31:55;;;;;;;149.37;60.63;;;;;;;12.61;83.19;100970.15;5080535;57;1143243;-76
2022/10/13 19:37:05;;;;;;;57.77;31.10;;;;;;;12.65;83.25;100966.30;5101691;56;1145393;-76
2022/10/13 19:42:10;;;;;;;45.63;25.13;;;;;;;12.64;83.41;100950.01;5100919;56;1143226;-76
2022/10/13 19:47:16;;;;;;;54.33;27.83;;;;;;;12.65;83.27;100958.33;5124224;56;1143511;-76
2022/10/13 19:52:23;;;;;;;45.60;26.37;;;;;;;12.61;83.44;100962.19;5130488;56;1143122;-77
2022/10/13 19:57:29;;;;;;;48.73;27.60;;;;;;;12.57;83.58;100960.73;5131532;56;1143175;-78
2022/10/13 20:02:36;;;;;;;47.70;25.10;;;;;;;12.54;83.73;100962.30;5090764;57;1143277;-76
2022/10/13 20:07:42;;;;;;;47.40;25.97;;;;;;;12.51;83.83;100959.42;5060951;57;1143291;-77
2022/10/13 20:12:49;;;;;;;51.50;28.70;;;;;;;12.45;83.97;100963.03;5002366;58;1143325;-76
2022/10/13 20:17:54;;;;;;;50.53;25.47;;;;;;;12.42;84.04;100957.95;5017190;58;1143663;-75
2022/10/13 20:23:02;;;;;;;41.60;23.90;;;;;;;12.42;84.26;100956.63;5105209;56;1143104;-76
2022/10/13 20:28:08;;;;;;;51.60;27.27;;;;;;;12.39;84.44;100946.25;5100168;57;1143290;-76
2022/10/13 20:33:15;;;;;;;52.10;28.77;;;;;;;12.42;84.67;100952.66;5140937;56;1143576;-76
2022/10/13 20:38:21;;;;;;;55.00;28.33;;;;;;;12.37;84.64;100936.27;5192537;56;1143278;-75
2022/10/13 20:43:27;;;;;;;62.63;29.13;;;;;;;12.31;84.59;100941.08;5226510;56;1143230;-74
2022/10/13 20:48:36;;;;;;;55.17;27.53;;;;;;;12.20;84.63;100939.76;5226133;56;1143147;-75
2022/10/13 20:53:44;;;;;;;57.33;30.90;;;;;;;12.16;84.85;100938.30;5226498;56;1143194;-76
2022/10/13 20:58:50;;;;;;;48.60;25.53;;;;;;;12.10;84.95;100932.61;5212974;56;1143221;-76
2022/10/13 21:03:57;;;;;;;41.33;22.20;;;;;;;12.06;85.00;100926.73;5133187;56;1143074;-76
2022/10/13 21:09:04;;;;;;;49.60;23.57;;;;;;;12.09;85.01;100925.62;5172208;56;1143247;-76
2022/10/13 21:14:11;;;;;;;47.53;22.37;;;;;;;12.03;85.13;100928.77;5157286;56;1143257;-76
2022/10/13 21:19:19;;;;;;;50.70;25.17;;;;;;;11.93;85.17;100920.66;5175401;56;1143151;-76
2022/10/13 21:24:25;;;;;;;41.03;22.50;;;;;;;11.81;85.56;100921.59;5169768;56;1143155;-76
2022/10/13 21:29:31;;;;;;;45.70;24.13;;;;;;;11.76;85.84;100922.45;5158841;56;1143189;-76
2022/10/13 21:34:37;;;;;;;38.97;22.40;;;;;;;11.66;86.03;100909.48;5170581;56;1143467;-76
2022/10/13 21:39:44;;;;;;;38.40;20.23;;;;;;;11.60;86.26;100905.03;5167803;56;1143190;-77
2022/10/13 21:44:51;;;;;;;39.67;18.73;;;;;;;11.52;86.17;100894.16;5186560;56;1143118;-76
2022/10/13 21:49:57;;;;;;;38.07;20.23;;;;;;;11.53;86.48;100891.88;5190662;56;1143177;-76
2022/10/13 21:55:03;;;;;;;41.03;20.10;;;;;;;11.50;86.70;100898.72;5178119;56;1141079;-77
2022/10/13 22:00:10;;;;;;;34.53;19.40;;;;;;;11.50;87.07;100894.75;5166899;56;1141081;-77
2022/10/13 22:05:17;;;;;;;37.40;19.95;;;;;;;11.46;87.14;100897.25;5195897;56;1141134;-76
2022/10/13 22:10:25;;;;;;;36.83;20.03;;;;;;;11.28;87.01;100898.66;5129655;56;1141141;-77
2022/10/13 22:15:36;;;;;;;38.50;19.27;;;;;;;11.28;87.59;100897.33;5184795;56;1141207;-77
2022/10/13 22:20:43;;;;;;;31.97;18.57;;;;;;;11.20;87.19;100893.07;5237088;56;1141130;-77
2022/10/13 22:25:49;;;;;;;41.80;22.80;;;;;;;11.14;87.54;100894.87;5237244;56;1141129;-77
2022/10/13 22:30:54;;;;;;;42.88;20.92;;;;;;;11.17;88.08;100895.46;5236927;56;1141117;-77
2022/10/13 22:36:02;;;;;;;42.33;22.57;;;;;;;11.17;88.11;100894.13;5236975;56;1141265;-77
2022/10/13 22:41:09;;;;;;;46.80;23.23;;;;;;;11.13;88.88;100890.53;5186820;56;1141102;-76
2022/10/13 22:46:18;;;;;;;49.47;21.60;;;;;;;11.04;89.13;100886.73;5133488;56;1141160;-76
2022/10/13 22:51:27;;;;;;;37.87;20.87;;;;;;;10.99;89.28;100884.93;5116230;58;1141154;-77
2022/10/13 22:56:34;;;;;;;46.47;21.27;;;;;;;10.98;89.36;100877.10;5047092;58;1141262;-77
2022/10/13 23:01:41;;;;;;;44.87;22.40;;;;;;;11.00;89.84;100877.84;5020149;58;1141155;-76
2022/10/13 23:06:47;;;;;;;51.10;24.80;;;;;;;11.00;89.93;100877.33;5212662;56;1139059;-76
2022/10/13 23:11:52;;;;;;;43.17;22.77;;;;;;;10.99;89.95;100873.50;5117034;56;1139183;-76
2022/10/13 23:16:59;;;;;;;43.77;20.93;;;;;;;10.96;90.11;100871.92;5150630;56;1143415;-76
2022/10/13 23:22:06;;;;;;;48.70;21.82;;;;;;;10.92;90.17;100869.97;5103873;57;1143227;-77
2022/10/13 23:27:12;;;;;;;43.70;21.87;;;;;;;10.91;90.17;100868.75;5009000;58;1143254;-76
2022/10/13 23:32:18;;;;;;;39.30;22.23;;;;;;;10.88;90.68;100862.36;4945893;58;1143436;-76
2022/10/13 23:37:25;;;;;;;46.13;23.90;;;;;;;10.92;90.87;100862.51;5124185;57;1143241;-76
2022/10/13 23:42:30;;;;;;;42.67;23.60;;;;;;;10.93;90.96;100857.11;5096626;57;1143263;-76
2022/10/13 23:47:36;;;;;;;37.47;21.23;;;;;;;10.97;91.06;100856.88;5042462;58;1143115;-76
2022/10/13 23:52:42;;;;;;;41.13;21.63;;;;;;;11.00;90.99;100854.83;5116121;58;1143355;-76
2022/10/13 23:57:49;;;;;;;52.03;24.37;;;;;;;11.06;91.08;100852.22;4976260;58;1143212;-76
